createdAt,value
2022-09-07T00:01:46.925Z,9.59
2022-09-07T00:04:18.574Z,9.64
2022-09-07T00:06:47.675Z,9.49
2022-09-07T00:09:16.766Z,9.59
2022-09-07T00:11:46.688Z,9.56
2022-09-07T00:14:15.795Z,9.70
2022-09-07T00:16:45.117Z,9.62
2022-09-07T00:22:01.711Z,9.47
2022-09-07T00:24:31.100Z,9.63
2022-09-07T00:27:00.158Z,9.55
2022-09-07T00:29:29.514Z,9.46
2022-09-07T00:31:58.408Z,8.64
2022-09-07T00:34:27.322Z,9.28
2022-09-07T00:36:56.243Z,8.81
2022-09-07T00:39:26.672Z,9.39
2022-09-07T00:41:55.736Z,9.27
2022-09-07T00:45:01.199Z,9.44
2022-09-07T00:47:37.710Z,9.30
2022-09-07T00:50:12.935Z,9.15
2022-09-07T00:52:45.768Z,9.31
2022-09-07T00:55:17.380Z,9.26
2022-09-07T00:57:50.820Z,9.24
2022-09-07T01:00:20.066Z,9.30
2022-09-07T01:02:52.011Z,9.26
2022-09-07T01:05:25.611Z,8.64
2022-09-07T01:07:56.391Z,9.22
2022-09-07T01:10:32.796Z,9.17
2022-09-07T01:13:02.130Z,9.29
2022-09-07T01:15:44.270Z,9.29
2022-09-07T01:18:22.958Z,9.27
2022-09-07T01:21:17.760Z,9.28
2022-09-07T01:24:32.087Z,9.29
2022-09-07T01:27:51.505Z,9.28
2022-09-07T01:30:25.190Z,9.23
2022-09-07T01:33:10.063Z,9.14
2022-09-07T01:35:46.590Z,9.17
2022-09-07T01:38:22.322Z,9.20
2022-09-07T01:40:58.692Z,9.21
2022-09-07T01:43:35.038Z,9.34
2022-09-07T01:46:18.035Z,9.21
2022-09-07T01:48:49.694Z,9.20
2022-09-07T01:51:22.989Z,9.15
2022-09-07T01:53:55.156Z,9.16
2022-09-07T01:56:29.229Z,9.14
2022-09-07T01:59:01.909Z,9.10
2022-09-07T02:01:37.819Z,9.10
2022-09-07T02:04:12.223Z,9.08
2022-09-07T02:06:46.942Z,9.09
2022-09-07T02:09:24.655Z,9.09
2022-09-07T02:11:54.877Z,9.05
2022-09-07T02:14:26.560Z,9.06
2022-09-07T02:17:00.384Z,9.02
2022-09-07T02:19:35.104Z,9.03
2022-09-07T02:22:10.043Z,8.97
2022-09-07T02:24:42.634Z,8.97
2022-09-07T02:27:15.859Z,8.86
2022-09-07T02:29:45.171Z,8.90
2022-09-07T02:32:15.744Z,8.95
2022-09-07T02:34:44.987Z,8.98
2022-09-07T02:37:18.078Z,8.98
2022-09-07T02:39:48.111Z,8.89
2022-09-07T02:42:17.726Z,8.96
2022-09-07T02:44:48.336Z,8.97
2022-09-07T02:47:34.995Z,9.03
2022-09-07T02:50:26.557Z,8.94
2022-09-07T02:53:06.094Z,8.95
2022-09-07T02:55:46.825Z,8.89
2022-09-07T02:58:27.449Z,8.79
2022-09-07T03:01:05.488Z,8.35
2022-09-07T03:03:43.816Z,8.84
2022-09-07T03:06:21.179Z,8.89
2022-09-07T03:08:54.275Z,8.83
2022-09-07T03:11:24.298Z,9.00
2022-09-07T03:13:53.265Z,8.95
2022-09-07T03:16:22.174Z,8.98
2022-09-07T03:18:52.681Z,9.06
2022-09-07T03:21:21.700Z,8.93
2022-09-07T03:23:51.921Z,8.94
2022-09-07T03:26:25.110Z,8.91
2022-09-07T03:28:54.103Z,8.91
2022-09-07T03:31:22.850Z,8.91
2022-09-07T03:33:53.005Z,8.99
2022-09-07T03:36:21.799Z,9.07
2022-09-07T03:38:50.542Z,8.96
2022-09-07T03:41:19.274Z,8.95
2022-09-07T03:43:49.324Z,9.05
2022-09-07T03:46:19.737Z,8.99
2022-09-07T03:48:50.519Z,9.10
2022-09-07T03:51:20.837Z,9.04
2022-09-07T03:53:51.358Z,9.13
2022-09-07T03:56:22.765Z,9.16
2022-09-07T03:58:52.558Z,8.96
2022-09-07T04:01:24.479Z,9.21
2022-09-07T04:03:55.436Z,9.16
2022-09-07T04:06:27.969Z,9.19
2022-09-07T04:08:57.442Z,8.82
2022-09-07T04:11:26.243Z,9.33
2022-09-07T04:13:55.032Z,9.25
2022-09-07T04:16:27.589Z,9.19
2022-09-07T04:18:57.769Z,9.43
2022-09-07T04:21:30.697Z,9.50
2022-09-07T04:24:00.263Z,9.46
2022-09-07T04:26:31.009Z,9.54
2022-09-07T04:29:01.201Z,9.62
2022-09-07T04:31:30.263Z,9.62
2022-09-07T04:33:59.066Z,9.74
2022-09-07T04:36:29.711Z,9.92
2022-09-07T04:39:01.584Z,9.93
2022-09-07T04:41:32.278Z,9.99
2022-09-07T04:44:03.002Z,9.94
2022-09-07T04:46:34.598Z,10.06
2022-09-07T04:49:06.907Z,9.59
2022-09-07T04:51:37.868Z,10.27
2022-09-07T04:54:07.421Z,10.36
2022-09-07T04:56:36.266Z,10.53
2022-09-07T04:59:06.087Z,10.45
2022-09-07T05:01:35.206Z,10.52
2022-09-07T05:04:05.506Z,10.71
2022-09-07T05:06:34.667Z,10.77
2022-09-07T05:09:05.156Z,10.65
2022-09-07T05:11:34.312Z,10.89
2022-09-07T05:14:04.821Z,10.98
2022-09-07T05:16:33.678Z,11.10
2022-09-07T05:19:03.833Z,11.16
2022-09-07T05:21:35.257Z,11.12
2022-09-07T05:24:06.259Z,11.19
2022-09-07T05:26:36.801Z,10.73
2022-09-07T05:31:55.601Z,11.06
2022-09-07T05:34:32.312Z,11.13
2022-09-07T05:37:02.118Z,11.28
2022-09-07T05:39:32.564Z,11.61
2022-09-07T05:42:01.399Z,11.58
2022-09-07T05:44:47.381Z,11.73
2022-09-07T05:47:16.704Z,11.91
2022-09-07T05:49:45.560Z,11.86
2022-09-07T05:52:14.538Z,11.54
2022-09-07T05:54:44.596Z,12.06
2022-09-07T05:57:13.704Z,12.01
2022-09-07T05:59:42.868Z,11.78
2022-09-07T06:02:14.444Z,11.77
2022-09-07T06:04:44.235Z,11.72
2022-09-07T06:07:22.673Z,12.06
2022-09-07T06:12:49.057Z,12.48
2022-09-07T06:15:18.879Z,12.54
2022-09-07T06:17:58.914Z,12.54
2022-09-07T06:20:27.701Z,12.34
2022-09-07T06:22:56.647Z,12.39
2022-09-07T06:25:26.847Z,12.35
2022-09-07T06:27:55.763Z,12.43
2022-09-07T06:30:25.435Z,12.74
2022-09-07T06:32:54.328Z,12.48
2022-09-07T06:35:23.453Z,12.83
2022-09-07T06:37:52.140Z,13.20
2022-09-07T06:40:20.956Z,13.37
2022-09-07T06:42:51.273Z,13.50
2022-09-07T06:45:20.933Z,13.73
2022-09-07T06:47:49.686Z,13.73
2022-09-07T06:50:18.557Z,13.60
2022-09-07T06:55:44.663Z,13.46
2022-09-07T06:58:15.230Z,13.14
2022-09-07T07:00:44.214Z,13.87
2022-09-07T07:03:13.269Z,13.88
2022-09-07T07:05:52.319Z,14.06
2022-09-07T07:08:23.306Z,13.65
2022-09-07T07:10:53.165Z,13.67
2022-09-07T07:15:53.975Z,14.12
2022-09-07T07:18:23.053Z,13.95
2022-09-07T07:20:51.696Z,14.54
2022-09-07T07:23:20.384Z,14.53
2022-09-07T07:25:49.115Z,14.47
2022-09-07T07:31:12.053Z,15.15
2022-09-07T07:33:42.548Z,14.69
2022-09-07T07:36:13.428Z,14.98
2022-09-07T07:44:19.608Z,14.93
2022-09-07T07:46:50.569Z,15.02
2022-09-07T07:49:19.409Z,15.11
2022-09-07T07:54:37.930Z,15.46
2022-09-07T07:57:07.215Z,15.62
2022-09-07T07:59:36.391Z,15.57
2022-09-07T08:02:08.883Z,15.37
2022-09-07T08:04:37.784Z,15.50
2022-09-07T08:07:10.739Z,15.35
2022-09-07T08:09:41.735Z,15.46
2022-09-07T08:12:12.407Z,16.26
2022-09-07T08:14:42.034Z,15.45
2022-09-07T08:17:14.105Z,15.24
2022-09-07T08:19:43.100Z,16.19
2022-09-07T08:22:13.414Z,16.51
2022-09-07T08:24:42.109Z,15.83
2022-09-07T08:27:11.196Z,15.18
2022-09-07T08:29:40.025Z,15.36
2022-09-07T08:32:08.878Z,15.53
2022-09-07T08:34:39.045Z,16.63
2022-09-07T08:37:08.204Z,16.13
2022-09-07T08:39:37.217Z,15.91
2022-09-07T08:42:43.629Z,16.05
2022-09-07T08:45:17.206Z,15.80
2022-09-07T08:47:50.533Z,16.79
2022-09-07T08:50:25.060Z,17.42
2022-09-07T08:52:57.487Z,16.53
2022-09-07T08:55:29.901Z,16.45
2022-09-07T08:58:21.872Z,17.09
2022-09-07T09:06:49.283Z,17.62
2022-09-07T09:09:28.881Z,17.74
2022-09-07T09:12:13.086Z,17.30
2022-09-07T09:14:57.488Z,16.60
2022-09-07T09:17:31.687Z,16.36
2022-09-07T09:20:11.297Z,16.98
2022-09-07T09:22:41.760Z,17.38
2022-09-07T09:25:20.482Z,16.56
2022-09-07T09:27:49.987Z,17.32
2022-09-07T09:30:20.203Z,18.06
2022-09-07T09:32:52.550Z,17.61
2022-09-07T09:35:29.970Z,18.77
2022-09-07T09:38:00.093Z,17.92
2022-09-07T09:40:32.360Z,16.82
2022-09-07T09:43:06.907Z,17.09
2022-09-07T09:48:33.849Z,18.80
2022-09-07T09:53:58.961Z,18.36
2022-09-07T09:56:37.477Z,18.90
2022-09-07T10:05:28.544Z,18.72
2022-09-07T10:07:58.037Z,18.56
2022-09-07T10:10:29.607Z,17.71
2022-09-07T10:12:59.000Z,18.75
2022-09-07T10:15:39.648Z,18.52
2022-09-07T10:18:21.374Z,21.15
2022-09-07T10:20:50.389Z,22.76
2022-09-07T10:23:24.028Z,23.05
2022-09-07T10:25:54.165Z,23.32
2022-09-07T10:28:24.885Z,25.63
2022-09-07T10:31:11.037Z,27.58
2022-09-07T10:36:45.796Z,30.82
2022-09-07T10:39:20.025Z,27.92
2022-09-07T10:42:01.690Z,27.68
2022-09-07T10:44:43.450Z,28.19
2022-09-07T10:47:25.013Z,26.18
2022-09-07T10:52:53.404Z,19.65
2022-09-07T10:55:28.078Z,24.34
2022-09-07T10:58:08.516Z,21.38
2022-09-07T11:00:46.127Z,23.78
2022-09-07T11:03:32.194Z,26.89
2022-09-07T11:06:17.209Z,29.08
2022-09-07T11:09:19.549Z,29.99
2022-09-07T11:12:01.159Z,30.78
2022-09-07T11:14:37.404Z,31.64
2022-09-07T11:17:15.409Z,28.62
2022-09-07T11:19:51.788Z,32.92
2022-09-07T11:22:33.780Z,32.34
2022-09-07T11:28:03.021Z,29.11
2022-09-07T11:30:35.826Z,28.29
2022-09-07T11:33:15.004Z,27.42
2022-09-07T11:35:50.794Z,30.07
2022-09-07T11:38:26.597Z,32.74
2022-09-07T11:41:06.384Z,32.15
2022-09-07T11:43:40.819Z,29.03
2022-09-07T11:46:16.906Z,27.61
2022-09-07T11:48:50.252Z,28.32
2022-09-07T11:51:23.826Z,32.61
2022-09-07T11:53:56.226Z,31.33
2022-09-07T11:56:36.375Z,33.62
2022-09-07T11:59:21.287Z,32.12
2022-09-07T12:02:06.094Z,29.32
2022-09-07T12:04:49.271Z,33.33
2022-09-07T12:07:38.941Z,33.26
2022-09-07T12:10:33.177Z,33.90
2022-09-07T12:13:32.583Z,29.37
2022-09-07T12:16:08.655Z,32.42
2022-09-07T12:19:20.153Z,32.30
2022-09-07T12:21:55.618Z,34.34
2022-09-07T12:24:43.249Z,31.66
2022-09-07T12:27:28.139Z,35.99
2022-09-07T12:30:32.021Z,36.07
2022-09-07T12:33:19.769Z,31.25
2022-09-07T12:35:50.098Z,30.58
2022-09-07T12:39:07.255Z,34.14
2022-09-07T12:44:44.476Z,32.50
2022-09-07T12:47:29.610Z,34.83
2022-09-07T12:50:29.637Z,34.82
2022-09-07T12:53:26.025Z,34.47
2022-09-07T12:56:18.127Z,34.01
2022-09-07T12:58:59.930Z,34.80
2022-09-07T13:01:37.831Z,31.13
2022-09-07T13:04:27.906Z,32.50
2022-09-07T13:07:10.741Z,31.07
2022-09-07T13:09:41.864Z,33.94
2022-09-07T13:15:41.095Z,31.28
2022-09-07T13:18:42.405Z,36.21
2022-09-07T13:21:33.367Z,34.35
2022-09-07T13:24:46.901Z,35.30
2022-09-07T13:27:41.509Z,32.15
2022-09-07T13:30:32.566Z,31.57
2022-09-07T13:33:44.742Z,31.82
2022-09-07T13:36:40.219Z,32.76
2022-09-07T13:39:15.953Z,34.58
2022-09-07T13:41:50.199Z,33.52
2022-09-07T13:44:26.440Z,32.33
2022-09-07T13:47:08.745Z,32.29
2022-09-07T13:50:01.968Z,35.79
2022-09-07T13:52:45.505Z,37.41
2022-09-07T13:55:29.410Z,36.25
2022-09-07T13:58:09.542Z,30.07
2022-09-07T14:00:50.127Z,29.75
2022-09-07T14:03:19.113Z,28.50
2022-09-07T14:05:49.355Z,35.23
2022-09-07T14:08:28.491Z,35.11
2022-09-07T14:10:57.624Z,34.13
2022-09-07T14:13:27.980Z,34.02
2022-09-07T14:15:57.233Z,33.21
2022-09-07T14:18:31.422Z,32.32
2022-09-07T14:21:01.850Z,32.53
2022-09-07T14:23:32.841Z,31.92
2022-09-07T14:26:18.571Z,34.00
2022-09-07T14:28:49.961Z,32.74
2022-09-07T14:31:20.819Z,33.40
2022-09-07T14:33:52.951Z,34.40
2022-09-07T14:36:45.367Z,34.40
2022-09-07T14:39:17.015Z,34.37
2022-09-07T14:41:47.154Z,33.34
2022-09-07T14:44:30.168Z,33.83
2022-09-07T14:47:01.803Z,33.45
2022-09-07T14:49:31.349Z,30.52
2022-09-07T14:52:02.015Z,28.06
2022-09-07T14:54:34.073Z,25.13
2022-09-07T14:57:25.835Z,23.32
2022-09-07T14:59:57.216Z,22.42
2022-09-07T15:02:37.907Z,23.33
2022-09-07T15:05:28.958Z,22.97
2022-09-07T15:08:01.644Z,23.68
2022-09-07T15:10:37.457Z,23.19
2022-09-07T15:13:23.146Z,22.89
2022-09-07T15:16:03.764Z,26.45
2022-09-07T15:18:54.692Z,24.20
2022-09-07T15:21:28.592Z,24.89
2022-09-07T15:24:00.494Z,26.10
2022-09-07T15:29:29.377Z,27.51
2022-09-07T15:32:03.867Z,26.70
2022-09-07T15:34:34.685Z,25.62
2022-09-07T15:38:00.303Z,24.64
2022-09-07T15:39:54.959Z,23.09
2022-09-07T15:45:13.818Z,20.56
2022-09-07T15:47:50.634Z,20.66
2022-09-07T15:50:23.169Z,20.21
2022-09-07T15:52:52.371Z,19.78
2022-09-07T15:55:24.355Z,19.65
2022-09-07T15:58:08.779Z,19.48
2022-09-07T16:00:40.315Z,19.70
2022-09-07T16:03:09.701Z,19.58
2022-09-07T16:05:44.065Z,19.60
2022-09-07T16:08:32.651Z,19.37
2022-09-07T16:11:18.012Z,19.03
2022-09-07T16:13:48.153Z,18.74
2022-09-07T16:16:17.327Z,18.58
2022-09-07T16:18:47.331Z,18.62
2022-09-07T16:21:16.797Z,18.55
2022-09-07T16:23:48.853Z,18.48
2022-09-07T16:26:20.548Z,18.33
2022-09-07T16:28:51.425Z,18.09
2022-09-07T16:31:22.485Z,18.08
2022-09-07T16:33:51.711Z,18.10
2022-09-07T16:36:23.699Z,17.96
2022-09-07T16:38:57.105Z,17.77
2022-09-07T16:41:29.250Z,17.55
2022-09-07T16:43:58.319Z,17.48
2022-09-07T16:46:29.170Z,17.26
2022-09-07T16:48:58.445Z,16.99
2022-09-07T16:51:27.410Z,16.77
2022-09-07T16:53:58.890Z,16.92
2022-09-07T16:56:30.629Z,16.77
2022-09-07T16:59:01.439Z,16.70
2022-09-07T17:01:32.381Z,16.61
2022-09-07T17:04:06.679Z,16.52
2022-09-07T17:06:38.927Z,16.57
2022-09-07T17:09:08.457Z,16.48
2022-09-07T17:11:38.770Z,16.56
2022-09-07T17:14:08.775Z,16.45
2022-09-07T17:16:40.723Z,16.07
2022-09-07T17:22:03.656Z,16.25
2022-09-07T17:24:32.713Z,16.18
2022-09-07T17:27:03.649Z,16.15
2022-09-07T17:29:36.987Z,16.03
2022-09-07T17:34:56.324Z,15.66
2022-09-07T17:37:25.705Z,15.70
2022-09-07T17:39:54.712Z,15.76
2022-09-07T17:43:38.764Z,15.48
2022-09-07T17:45:17.024Z,15.41
2022-09-07T17:47:45.875Z,15.26
2022-09-07T17:50:14.610Z,15.26
2022-09-07T17:52:46.066Z,15.21
2022-09-07T17:55:15.512Z,15.27
2022-09-07T17:57:47.026Z,15.07
2022-09-07T18:00:17.458Z,15.38
2022-09-07T18:02:48.717Z,15.28
2022-09-07T18:05:18.355Z,15.47
2022-09-07T18:07:47.892Z,15.47
2022-09-07T18:10:18.626Z,15.35
2022-09-07T18:12:48.805Z,15.40
2022-09-07T18:15:21.270Z,15.20
2022-09-07T18:17:50.282Z,15.02
2022-09-07T18:20:19.372Z,14.87
2022-09-07T18:22:50.918Z,14.69
2022-09-07T18:25:22.794Z,14.55
2022-09-07T18:30:42.878Z,14.37
2022-09-07T18:33:11.834Z,14.42
2022-09-07T18:35:52.693Z,14.28
2022-09-07T18:38:42.366Z,14.22
2022-09-07T18:41:14.030Z,14.14
2022-09-07T18:43:47.069Z,13.99
2022-09-07T18:46:17.943Z,13.94
2022-09-07T18:48:47.663Z,13.91
2022-09-07T18:51:17.882Z,14.34
2022-09-07T18:53:47.635Z,14.34
2022-09-07T18:56:18.271Z,14.27
2022-09-07T18:59:19.801Z,13.98
2022-09-07T19:01:50.575Z,14.15
2022-09-07T19:04:19.946Z,14.19
2022-09-07T19:06:48.876Z,14.08
2022-09-07T19:09:18.136Z,13.93
2022-09-07T19:11:48.501Z,13.78
2022-09-07T19:14:17.824Z,13.68
2022-09-07T19:17:26.968Z,13.64
2022-09-07T19:19:55.935Z,13.52
2022-09-07T19:22:27.530Z,13.46
2022-09-07T19:24:56.307Z,13.28
2022-09-07T19:27:27.234Z,13.38
2022-09-07T19:29:56.357Z,13.37
2022-09-07T19:32:26.701Z,13.29
2022-09-07T19:34:56.261Z,13.19
2022-09-07T19:37:25.992Z,13.14
2022-09-07T19:39:57.409Z,13.23
2022-09-07T19:42:27.354Z,13.15
2022-09-07T19:44:56.571Z,12.97
2022-09-07T19:47:26.883Z,13.07
2022-09-07T19:49:55.768Z,13.07
2022-09-07T19:52:25.844Z,13.03
2022-09-07T19:54:54.994Z,12.93
2022-09-07T19:57:25.031Z,12.93
2022-09-07T19:59:57.204Z,12.88
2022-09-07T20:02:28.576Z,12.84
2022-09-07T20:04:58.314Z,11.78
2022-09-07T20:07:27.572Z,12.73
2022-09-07T20:09:57.129Z,12.51
2022-09-07T20:12:26.601Z,12.56
2022-09-07T20:14:55.642Z,12.49
2022-09-07T20:17:24.708Z,12.57
2022-09-07T20:19:54.943Z,12.81
2022-09-07T20:22:24.127Z,12.88
2022-09-07T20:24:53.158Z,12.60
2022-09-07T20:27:21.930Z,12.39
2022-09-07T20:29:51.619Z,12.54
2022-09-07T20:32:20.567Z,12.53
2022-09-07T20:34:50.604Z,12.34
2022-09-07T20:37:21.091Z,12.35
2022-09-07T20:39:50.059Z,12.27
2022-09-07T20:42:18.965Z,12.25
2022-09-07T20:44:48.280Z,12.03
2022-09-07T20:47:17.172Z,12.13
2022-09-07T20:49:46.136Z,12.10
2022-09-07T20:52:15.217Z,12.09
2022-09-07T20:54:45.282Z,12.07
2022-09-07T20:57:14.229Z,12.04
2022-09-07T20:59:43.039Z,11.92
2022-09-07T21:02:11.990Z,11.90
2022-09-07T21:04:43.535Z,11.91
2022-09-07T21:07:12.629Z,11.88
2022-09-07T21:09:41.982Z,12.08
2022-09-07T21:12:12.799Z,12.23
2022-09-07T21:14:42.047Z,12.25
2022-09-07T21:17:10.841Z,12.17
2022-09-07T21:19:39.574Z,12.21
2022-09-07T21:22:08.299Z,12.12
2022-09-07T21:24:37.403Z,12.11
2022-09-07T21:27:07.792Z,12.06
2022-09-07T21:29:38.452Z,12.16
2022-09-07T21:32:07.278Z,12.03
2022-09-07T21:34:36.762Z,12.01
2022-09-07T21:37:05.977Z,11.80
2022-09-07T21:39:38.742Z,11.82
2022-09-07T21:42:12.299Z,11.83
2022-09-07T21:44:46.159Z,11.80
2022-09-07T21:47:16.126Z,11.77
2022-09-07T21:49:46.355Z,11.77
2022-09-07T21:52:15.262Z,11.71
2022-09-07T21:54:44.547Z,11.59
2022-09-07T21:57:13.245Z,11.70
2022-09-07T21:59:42.017Z,11.83
2022-09-07T22:02:12.310Z,11.90
2022-09-07T22:04:41.212Z,11.86
2022-09-07T22:07:09.905Z,11.95
2022-09-07T22:09:39.043Z,12.04
2022-09-07T22:12:08.561Z,11.85
2022-09-07T22:14:37.426Z,11.73
2022-09-07T22:17:06.899Z,11.60
2022-09-07T22:19:37.633Z,11.65
2022-09-07T22:22:06.752Z,11.51
2022-09-07T22:24:35.861Z,11.49
2022-09-07T22:27:04.811Z,11.52
2022-09-07T22:29:33.749Z,11.47
2022-09-07T22:32:02.820Z,11.49
2022-09-07T22:34:31.709Z,11.46
2022-09-07T22:37:01.783Z,11.65
2022-09-07T22:39:30.489Z,11.47
2022-09-07T22:41:59.269Z,11.54
2022-09-07T22:44:28.990Z,11.45
2022-09-07T22:46:58.398Z,11.43
2022-09-07T22:49:27.259Z,11.28
2022-09-07T22:51:56.197Z,11.30
2022-09-07T22:54:26.445Z,11.21
2022-09-07T22:56:55.279Z,11.38
2022-09-07T22:59:23.995Z,11.65
2022-09-07T23:01:52.883Z,11.63
2022-09-07T23:04:21.755Z,11.96
2022-09-07T23:06:50.561Z,11.83
2022-09-07T23:09:20.909Z,12.22
2022-09-07T23:11:50.972Z,11.90
2022-09-07T23:14:22.116Z,11.83
2022-09-07T23:16:51.232Z,11.56
2022-09-07T23:19:21.043Z,11.44
2022-09-07T23:21:49.752Z,11.29
2022-09-07T23:24:19.789Z,11.21
2022-09-07T23:26:50.156Z,11.14
2022-09-07T23:29:20.749Z,11.29
2022-09-07T23:31:49.583Z,11.50
2022-09-07T23:34:18.641Z,11.57
2022-09-07T23:36:47.375Z,11.62
2022-09-07T23:39:16.481Z,11.62
2022-09-07T23:41:45.187Z,11.64
2022-09-07T23:44:15.320Z,11.60
2022-09-07T23:46:44.440Z,11.57
2022-09-07T23:49:13.277Z,11.37
2022-09-07T23:51:42.045Z,11.26
2022-09-07T23:54:10.672Z,11.20
2022-09-07T23:56:39.409Z,11.30
2022-09-07T23:59:08.402Z,11.38
